Aérodrome :
LOGIN :

S'inscrire | Disclaimer

   EN    FR    IT 

 










Légende :    VFR   VFR Marginal   IFR   IFR Intensif   IFR Très Intensif
Visi : 
Plafond : 
>= 8 km
>= 3000ft
5 à 8 km
1000 à 3000 ft
1500m à 5 km
500 à 1000 ft
800 à 1500m
200 à 500 ft
< 800m
< 200 ft
Symboles :   Orages  Brouillard  Fortes neiges  Fortes précipitations  Vent > 20 kt
SIGMETs :   Divers  Orages  Givrage  Turbulence  Onde Orograph.  Cendres Volcan.







- Altitude de l'aérodrome : 13 ft
- Code IATA : SNR
- Voir les cartes d'approche


LFRZ - St-Nazaire

DERNIER METAR :
  • 151530Z AUTO 33010KT 300V010 9999 FEW045 09/00 Q1006 NOSIG

METARs EXPIRÉS :
  • 151500Z AUTO 33008KT 280V360 CAVOK 09/02 Q1005 TEMPO 30015G25KT 4000 SHRA SCT030CB
  • 151430Z AUTO 33011KT 290V020 CAVOK 09/01 Q1004 TEMPO 30015G25KT 4000 SHRA SCT030CB
  • 151400Z AUTO 33012KT 270V350 9999 SCT034 BKN042 BKN052 10/03 Q1004 TEMPO 30015G25KT 4000 SHRA SCT030CB
  • 151330Z AUTO 31008KT 270V350 9999 FEW035 10/04 Q1004 TEMPO 30015G25KT 4000 SHRA SCT030CB
  • 151300Z AUTO 30013KT 270V360 9999 -RA SCT034 BKN044 BKN052 10/05 Q1003 TEMPO 30015G25KT 4000 SHRA SCT030CB

TAF TAF LFRZ
Valide du 15 à 12h jusqu'au 16 à 12h UTC


151100Z 1512/1612 29008KT 9999 SCT030
TEMPO 1512/1516 30015G25KT 4000 SHRA SCT030CB
PROB30 1512/1514 -TSRA
Pas de NOTAMs connus pour ce terrain.



MET'MAP, la Météo Aéronautique d'un coup d'oeil ! - Copyright ORBIFLY Décembre 2007 - Disclaimer

ORBIFLY MET'MAP TEAM :

Programmation & Développement : Alexandra Zaïnal
Conception & Développement : Baudouin d'Aumeries
Co-Programmation & Développement : Marc-Olivier Méhu
Soutien technique & logistique : Manuel Goepfert

Contact : metmap@orbifly.com




SOURCES & CREDITS :

   NOAA